Time;durP1;ratioP1;P1;durP2;ratioP2;P2;SDS_P1;SDS_P2;PMS_P1;PMS_P2;Temp;Humidity;BMP_temperature;BMP_pressure;BME280_temperature;BME280_humidity;BME280_pressure;Samples;Min_cycle;Max_cycle;Signal;HPM_P1;HPM_P2
2022/10/30 00:00:37;;;;;;;24.33;11.35;;;14.30;99.90;;;;;;5075570;28;20070;-93
2022/10/30 00:03:03;;;;;;;18.70;10.57;;;14.40;99.90;;;;;;5058121;28;20044;-93
2022/10/30 00:05:29;;;;;;;29.35;11.02;;;14.40;99.90;;;;;;5072464;28;20046;-93
2022/10/30 00:07:55;;;;;;;23.10;10.07;;;14.30;99.90;;;;;;5054351;28;20040;-92
2022/10/30 00:10:21;;;;;;;26.92;11.40;;;14.40;99.90;;;;;;5071963;28;20402;-93
2022/10/30 00:12:47;;;;;;;24.38;11.15;;;14.40;99.90;;;;;;5071974;28;20048;-93
2022/10/30 00:15:13;;;;;;;24.77;10.02;;;14.40;99.90;;;;;;5088527;28;20127;-93
2022/10/30 00:17:40;;;;;;;22.10;9.57;;;14.40;99.90;;;;;;5071187;28;20170;-92
2022/10/30 00:20:07;;;;;;;31.92;11.02;;;14.40;99.90;;;;;;5071336;28;20048;-93
2022/10/30 00:22:34;;;;;;;22.80;10.05;;;14.40;99.90;;;;;;5072019;28;20075;-93
2022/10/30 00:25:00;;;;;;;16.67;9.73;;;14.40;99.90;;;;;;5088479;28;20052;-93
2022/10/30 00:27:32;;;;;;;17.08;8.98;;;14.50;99.90;;;;;;5072281;28;20158;-93
2022/10/30 00:29:58;;;;;;;20.77;7.95;;;14.50;99.90;;;;;;5039439;28;20056;-93
2022/10/30 00:32:23;;;;;;;23.77;10.18;;;14.50;99.90;;;;;;5056857;28;20150;-94
2022/10/30 00:34:50;;;;;;;25.17;10.20;;;14.50;99.90;;;;;;5075067;28;20055;-94
2022/10/30 00:37:16;;;;;;;34.85;11.70;;;14.50;99.90;;;;;;5065863;28;20603;-94
2022/10/30 00:39:41;;;;;;;19.58;9.45;;;14.70;99.90;;;;;;5084947;28;20089;-94
2022/10/30 00:42:12;;;;;;;26.80;9.70;;;14.60;99.90;;;;;;5088700;28;20051;-93
2022/10/30 00:44:44;;;;;;;29.17;10.65;;;14.60;99.90;;;;;;5091038;28;20055;-94
2022/10/30 00:47:18;;;;;;;22.85;9.45;;;14.70;99.90;;;;;;5099968;28;20126;-93
2022/10/30 00:49:59;;;;;;;23.55;9.05;;;14.90;99.90;;;;;;5082041;28;20040;-95
2022/10/30 00:52:29;;;;;;;21.25;9.73;;;14.70;99.90;;;;;;5076231;28;20448;-94
2022/10/30 00:54:57;;;;;;;19.35;10.02;;;14.80;99.90;;;;;;5058267;28;20101;-94
2022/10/30 00:57:24;;;;;;;22.65;9.43;;;14.80;99.90;;;;;;5074847;28;20071;-93
2022/10/30 00:59:50;;;;;;;23.63;9.50;;;15.30;99.90;;;;;;5073042;28;20441;-94
2022/10/30 01:02:18;;;;;;;21.00;9.05;;;15.40;99.90;;;;;;5072525;28;20048;-93
2022/10/30 01:04:45;;;;;;;26.00;8.85;;;14.80;99.90;;;;;;5072369;28;20146;-94
2022/10/30 01:07:14;;;;;;;17.35;8.45;;;14.80;99.90;;;;;;5055505;28;20044;-94
2022/10/30 01:09:40;;;;;;;25.83;9.45;;;15.00;99.90;;;;;;5072055;28;20086;-94
2022/10/30 01:12:06;;;;;;;20.13;11.35;;;14.80;99.90;;;;;;5071051;28;20099;-94
2022/10/30 01:14:35;;;;;;;27.67;8.57;;;14.80;99.90;;;;;;5072737;28;20546;-94
2022/10/30 01:17:24;;;;;;;16.80;8.75;;;14.70;99.90;;;;;;5070916;28;20040;-93
2022/10/30 01:20:13;;;;;;;21.75;9.60;;;14.70;99.90;;;;;;5071603;28;20097;-94
2022/10/30 01:22:39;;;;;;;17.40;8.75;;;14.70;99.90;;;;;;5072211;28;20044;-94
2022/10/30 01:25:43;;;;;;;25.30;9.15;;;14.70;99.90;;;;;;5088890;28;20092;-94
2022/10/30 01:28:47;;;;;;;20.67;9.45;;;14.70;99.90;;;;;;5071977;28;20101;-95
2022/10/30 01:31:38;;;;;;;31.33;9.88;;;14.70;99.90;;;;;;5038489;28;20115;-93
2022/10/30 01:34:17;;;;;;;18.08;8.07;;;14.70;99.90;;;;;;5074896;28;20488;-94
2022/10/30 01:37:11;;;;;;;22.55;9.32;;;14.70;99.90;;;;;;5072553;28;20313;-94
2022/10/30 01:39:39;;;;;;;21.05;9.52;;;14.70;99.90;;;;;;5067422;28;20056;-94
2022/10/30 01:42:47;;;;;;;22.63;8.30;;;14.70;99.90;;;;;;5089667;28;20044;-93
2022/10/30 01:45:28;;;;;;;26.55;8.10;;;14.70;99.90;;;;;;5056436;28;20040;-94
2022/10/30 01:48:10;;;;;;;24.60;8.48;;;14.70;99.90;;;;;;5082344;28;20032;-93
2022/10/30 01:51:11;;;;;;;20.40;10.95;;;14.80;99.90;;;;;;5089946;28;20048;-93
2022/10/30 01:53:39;;;;;;;23.30;10.00;;;14.70;99.90;;;;;;5052563;28;20133;-94
2022/10/30 01:56:52;;;;;;;21.80;8.52;;;14.70;99.90;;;;;;5078364;28;20040;-94
2022/10/30 01:59:38;;;;;;;21.35;8.38;;;14.70;99.90;;;;;;5054896;28;20058;-94
2022/10/30 02:02:04;;;;;;;18.00;9.93;;;14.70;99.90;;;;;;5079607;28;20051;-93
2022/10/30 02:04:30;;;;;;;19.13;9.30;;;14.70;99.90;;;;;;5082889;28;20054;-94
2022/10/30 02:06:56;;;;;;;20.02;8.43;;;14.70;99.90;;;;;;5085041;28;20115;-94
2022/10/30 02:09:23;;;;;;;23.75;8.70;;;14.70;99.90;;;;;;5084150;28;20040;-94
2022/10/30 02:11:50;;;;;;;20.77;8.95;;;14.70;99.90;;;;;;5087973;28;20040;-95
2022/10/30 02:14:25;;;;;;;20.73;9.32;;;14.70;99.90;;;;;;5093278;28;20032;-93
2022/10/30 02:16:53;;;;;;;17.77;8.20;;;14.60;99.90;;;;;;5075471;28;20028;-95
2022/10/30 02:19:19;;;;;;;22.10;9.65;;;14.60;99.90;;;;;;5088433;28;20155;-95
2022/10/30 02:21:44;;;;;;;18.98;9.48;;;14.60;99.90;;;;;;5075472;28;20036;-95
2022/10/30 02:24:10;;;;;;;25.20;9.02;;;15.60;99.90;;;;;;5077260;28;20057;-94
2022/10/30 02:26:37;;;;;;;22.33;8.48;;;14.60;99.90;;;;;;5076407;28;20105;-93
2022/10/30 02:29:03;;;;;;;20.23;8.90;;;14.60;99.90;;;;;;5074488;28;20137;-93
2022/10/30 02:31:28;;;;;;;22.67;9.07;;;14.60;99.90;;;;;;5074697;28;20067;-94
2022/10/30 02:33:54;;;;;;;19.35;8.93;;;15.20;99.90;;;;;;5071840;28;20055;-94
2022/10/30 02:36:20;;;;;;;19.70;8.43;;;14.60;99.90;;;;;;5088697;28;20135;-93
2022/10/30 02:38:45;;;;;;;21.27;8.57;;;14.60;99.90;;;;;;5053428;28;20102;-93
2022/10/30 02:41:11;;;;;;;26.45;9.00;;;14.60;99.90;;;;;;5069911;28;20048;-95
2022/10/30 02:43:37;;;;;;;26.23;9.73;;;14.60;99.90;;;;;;5071605;28;20796;-94
2022/10/30 02:46:04;;;;;;;30.85;9.40;;;14.60;99.90;;;;;;5069639;28;20050;-95
2022/10/30 02:48:31;;;;;;;24.15;9.10;;;14.60;99.90;;;;;;5071872;28;20513;-94
2022/10/30 02:51:01;;;;;;;15.32;8.80;;;14.50;99.90;;;;;;5071267;28;20096;-94
2022/10/30 02:53:27;;;;;;;28.27;8.95;;;14.90;99.90;;;;;;5071220;28;20542;-96
2022/10/30 02:55:52;;;;;;;24.27;9.60;;;14.50;99.90;;;;;;5070223;28;20135;-95
2022/10/30 02:58:18;;;;;;;18.58;9.13;;;14.50;99.90;;;;;;5036011;28;20127;-95
2022/10/30 03:00:44;;;;;;;22.67;9.02;;;14.50;99.90;;;;;;5069140;28;20114;-94
2022/10/30 03:03:09;;;;;;;23.88;9.00;;;15.30;99.90;;;;;;5070225;28;20066;-95
2022/10/30 03:05:35;;;;;;;18.85;8.40;;;14.40;99.90;;;;;;5070183;28;20069;-95
2022/10/30 03:08:02;;;;;;;16.73;8.18;;;14.40;99.90;;;;;;5068972;28;20487;-94
2022/10/30 03:10:28;;;;;;;23.60;8.77;;;14.40;99.90;;;;;;5054094;28;20071;-93
2022/10/30 03:12:53;;;;;;;15.82;9.57;;;14.30;99.90;;;;;;5070174;28;20556;-94
2022/10/30 03:15:19;;;;;;;21.08;9.23;;;14.30;99.90;;;;;;5053223;28;20067;-94
2022/10/30 03:17:45;;;;;;;20.00;10.00;;;14.30;99.90;;;;;;5069952;28;20048;-94
2022/10/30 03:20:11;;;;;;;23.70;10.63;;;14.90;99.90;;;;;;5068963;28;20044;-93
2022/10/30 03:22:37;;;;;;;19.42;9.75;;;14.30;99.90;;;;;;5069924;28;20072;-95
2022/10/30 03:25:03;;;;;;;22.45;9.85;;;14.30;99.90;;;;;;5069625;28;20047;-94
2022/10/30 03:27:29;;;;;;;20.25;8.63;;;14.30;99.90;;;;;;5054124;28;20040;-93
2022/10/30 03:29:54;;;;;;;19.98;9.55;;;14.30;99.90;;;;;;5068375;28;20055;-94
2022/10/30 03:32:20;;;;;;;20.20;8.43;;;14.80;99.90;;;;;;5069607;28;20040;-94
2022/10/30 03:34:46;;;;;;;24.33;9.32;;;14.20;99.90;;;;;;5069208;28;20048;-96
2022/10/30 03:37:11;;;;;;;21.17;9.40;;;14.90;99.90;;;;;;5068762;28;20047;-95
2022/10/30 03:39:37;;;;;;;27.38;9.55;;;14.50;99.90;;;;;;5069975;28;20051;-93
2022/10/30 03:42:03;;;;;;;21.30;8.68;;;14.50;99.90;;;;;;5071855;28;20126;-94
2022/10/30 03:44:28;;;;;;;25.73;8.85;;;14.20;99.90;;;;;;5073763;28;20384;-94
2022/10/30 03:46:54;;;;;;;23.00;9.52;;;14.90;99.90;;;;;;5022693;28;20470;-94
2022/10/30 03:49:19;;;;;;;24.05;9.75;;;14.30;99.90;;;;;;5057081;28;20044;-95
2022/10/30 03:51:45;;;;;;;26.45;8.52;;;14.40;99.90;;;;;;5073491;28;20048;-95
2022/10/30 03:54:11;;;;;;;22.15;9.25;;;14.20;99.90;;;;;;5074377;28;20040;-95
2022/10/30 03:56:36;;;;;;;23.88;9.57;;;14.20;99.90;;;;;;5075144;28;20587;-94
2022/10/30 03:59:02;;;;;;;26.83;9.50;;;14.10;99.90;;;;;;5056750;28;20458;-94
2022/10/30 04:01:28;;;;;;;24.88;9.88;;;14.10;99.90;;;;;;5074604;28;20048;-95
2022/10/30 04:03:53;;;;;;;23.92;9.10;;;14.10;99.90;;;;;;5073061;28;20051;-94
2022/10/30 04:06:19;;;;;;;20.40;9.38;;;14.10;99.90;;;;;;5074019;28;20085;-94
2022/10/30 04:08:44;;;;;;;23.90;9.35;;;14.20;99.90;;;;;;5073567;28;20051;-96
2022/10/30 04:11:10;;;;;;;18.63;9.00;;;14.10;99.90;;;;;;5073433;28;20044;-94
2022/10/30 04:13:36;;;;;;;22.00;9.68;;;14.00;99.90;;;;;;5074290;28;20087;-94
2022/10/30 04:16:02;;;;;;;25.90;9.90;;;14.00;99.90;;;;;;5073194;28;20029;-94
2022/10/30 04:18:28;;;;;;;21.15;9.85;;;14.00;99.90;;;;;;5057729;28;20457;-94
2022/10/30 04:20:54;;;;;;;23.17;11.25;;;14.80;99.90;;;;;;5073029;28;20113;-96
2022/10/30 04:23:21;;;;;;;16.45;8.10;;;14.00;99.90;;;;;;5073077;28;20491;-95
2022/10/30 04:25:47;;;;;;;20.20;9.52;;;13.90;99.90;;;;;;5071597;28;20044;-95
2022/10/30 04:28:13;;;;;;;16.33;9.63;;;13.90;99.90;;;;;;5055668;28;20054;-94
2022/10/30 04:30:39;;;;;;;22.42;10.38;;;13.90;99.90;;;;;;5056732;28;20491;-95
2022/10/30 04:33:09;;;;;;;31.23;10.77;;;13.90;99.90;;;;;;5088826;28;20574;-95
2022/10/30 04:35:37;;;;;;;20.60;9.52;;;13.80;99.90;;;;;;5073585;28;20125;-95
2022/10/30 04:38:13;;;;;;;22.77;9.00;;;13.80;99.90;;;;;;5072927;28;20063;-94
2022/10/30 04:40:42;;;;;;;17.83;9.43;;;13.80;99.90;;;;;;5073641;28;20099;-96
2022/10/30 04:43:09;;;;;;;23.55;11.25;;;13.80;99.90;;;;;;5073918;28;20533;-94
2022/10/30 04:45:35;;;;;;;23.70;9.35;;;13.80;99.90;;;;;;5072517;28;20414;-94
2022/10/30 04:48:12;;;;;;;23.45;9.65;;;13.80;99.90;;;;;;5074240;28;20082;-95
2022/10/30 04:50:39;;;;;;;19.63;11.32;;;13.80;99.90;;;;;;5055255;28;20411;-94
2022/10/30 04:53:07;;;;;;;16.95;9.68;;;13.80;99.90;;;;;;5072932;28;20044;-95
2022/10/30 04:55:33;;;;;;;25.17;9.95;;;13.80;99.90;;;;;;5074081;28;20090;-95
2022/10/30 04:58:01;;;;;;;26.65;10.05;;;13.80;99.90;;;;;;5074827;28;20499;-95
2022/10/30 05:00:27;;;;;;;22.25;9.82;;;13.70;99.90;;;;;;5091372;28;20175;-95
2022/10/30 05:03:01;;;;;;;22.48;9.43;;;13.70;99.90;;;;;;5057358;28;20071;-96
2022/10/30 05:05:29;;;;;;;21.33;10.60;;;13.70;99.90;;;;;;5092009;28;20072;-95
2022/10/30 05:07:58;;;;;;;25.15;10.88;;;13.70;99.90;;;;;;5074790;28;20495;-95
2022/10/30 05:10:24;;;;;;;21.00;10.88;;;13.60;99.90;;;;;;5073785;28;20044;-96
2022/10/30 05:12:52;;;;;;;27.42;10.57;;;13.60;99.90;;;;;;5057269;28;20040;-94
2022/10/30 05:15:17;;;;;;;29.27;10.35;;;13.60;99.90;;;;;;5057189;28;20104;-94
2022/10/30 05:17:43;;;;;;;21.70;10.93;;;13.60;99.90;;;;;;5054560;28;20123;-93
2022/10/30 05:20:10;;;;;;;19.10;10.02;;;14.30;99.90;;;;;;5071163;28;20051;-94
2022/10/30 05:22:36;;;;;;;23.42;10.70;;;13.60;99.90;;;;;;5071545;28;20047;-95
2022/10/30 05:25:03;;;;;;;23.75;10.60;;;14.10;99.90;;;;;;5054006;28;20044;-94
2022/10/30 05:27:29;;;;;;;27.13;10.13;;;13.60;99.90;;;;;;5072790;28;20071;-95
2022/10/30 05:29:54;;;;;;;25.98;11.35;;;13.60;99.90;;;;;;5088701;28;20503;-92
2022/10/30 05:32:26;;;;;;;20.05;10.88;;;13.60;99.90;;;;;;5087593;28;20067;-95
2022/10/30 05:34:52;;;;;;;25.65;10.65;;;13.60;99.90;;;;;;5072838;28;20039;-95
2022/10/30 05:37:19;;;;;;;24.65;10.63;;;13.60;99.90;;;;;;5088042;28;20040;-94
2022/10/30 05:39:45;;;;;;;28.05;11.05;;;14.00;99.90;;;;;;5056892;28;20048;-94
2022/10/30 05:42:10;;;;;;;25.90;10.88;;;13.60;99.90;;;;;;5071684;28;20051;-95
2022/10/30 05:44:36;;;;;;;19.17;9.73;;;13.60;99.90;;;;;;5057152;28;20046;-95
2022/10/30 05:47:02;;;;;;;28.98;11.95;;;14.50;99.90;;;;;;5072215;28;20044;-94
2022/10/30 05:49:27;;;;;;;25.35;10.45;;;13.50;99.90;;;;;;5073208;28;20051;-96
2022/10/30 05:51:53;;;;;;;20.90;10.05;;;13.40;99.90;;;;;;5084988;28;20028;-95
2022/10/30 05:54:18;;;;;;;33.47;11.73;;;13.40;99.90;;;;;;5072606;28;20036;-95
2022/10/30 05:56:44;;;;;;;23.92;10.98;;;13.40;99.90;;;;;;5081043;28;20032;-96
2022/10/30 05:59:10;;;;;;;21.25;10.23;;;13.30;99.90;;;;;;5076514;28;20028;-96
2022/10/30 06:01:35;;;;;;;21.25;10.52;;;13.70;99.90;;;;;;5112606;28;20071;-95
2022/10/30 06:04:01;;;;;;;21.13;10.13;;;13.30;99.90;;;;;;5109533;28;20050;-93
2022/10/30 06:06:26;;;;;;;18.45;10.23;;;13.20;99.90;;;;;;5093073;28;20123;-93
2022/10/30 06:08:54;;;;;;;25.67;10.75;;;13.20;99.90;;;;;;5089897;28;20052;-95
2022/10/30 06:11:19;;;;;;;33.05;12.75;;;13.30;99.90;;;;;;5090327;28;20095;-94
2022/10/30 06:13:47;;;;;;;22.60;11.10;;;13.10;99.90;;;;;;5090663;28;20044;-92
2022/10/30 06:16:18;;;;;;;26.58;10.88;;;13.10;99.90;;;;;;5075509;28;20182;-93
2022/10/30 06:18:44;;;;;;;28.95;11.43;;;13.10;99.90;;;;;;5093377;28;20040;-93
2022/10/30 06:21:09;;;;;;;19.10;9.85;;;13.60;99.90;;;;;;5089317;28;20040;-94
2022/10/30 06:23:36;;;;;;;23.50;10.57;;;13.10;99.90;;;;;;5087232;28;20036;-94
2022/10/30 06:26:01;;;;;;;19.98;9.73;;;13.30;99.90;;;;;;5084369;28;20082;-95
2022/10/30 06:28:28;;;;;;;26.45;12.70;;;13.10;99.90;;;;;;5081356;28;20043;-94
2022/10/30 06:30:54;;;;;;;26.33;10.68;;;13.10;99.90;;;;;;5077848;28;20047;-95
2022/10/30 06:33:20;;;;;;;25.90;11.02;;;14.10;99.90;;;;;;5099885;28;20032;-95
2022/10/30 06:35:49;;;;;;;19.23;10.20;;;13.00;99.90;;;;;;5092520;28;20092;-96
2022/10/30 06:38:15;;;;;;;28.67;11.27;;;13.20;99.90;;;;;;5091830;28;20055;-93
2022/10/30 06:40:42;;;;;;;28.67;12.00;;;13.00;99.90;;;;;;5093994;28;20048;-93
2022/10/30 06:43:08;;;;;;;21.67;11.35;;;13.10;99.90;;;;;;5108030;28;20044;-94
2022/10/30 06:45:34;;;;;;;22.98;11.48;;;13.10;99.90;;;;;;5091825;28;20103;-94
2022/10/30 06:48:02;;;;;;;22.77;10.98;;;13.10;99.90;;;;;;5088262;28;20079;-94
2022/10/30 06:50:28;;;;;;;27.88;12.52;;;13.10;99.90;;;;;;5085065;28;20047;-91
2022/10/30 06:52:54;;;;;;;23.13;12.48;;;13.20;99.90;;;;;;5078848;28;20040;-93
2022/10/30 06:55:20;;;;;;;32.72;13.50;;;13.20;99.90;;;;;;5058047;28;20051;-95
2022/10/30 06:57:51;;;;;;;27.33;11.88;;;13.20;99.90;;;;;;5092233;28;20044;-94
2022/10/30 07:00:17;;;;;;;22.00;10.93;;;13.80;99.90;;;;;;5073442;28;20048;-94
2022/10/30 07:02:43;;;;;;;25.33;12.50;;;13.30;99.90;;;;;;5072592;28;20097;-93
2022/10/30 07:05:08;;;;;;;22.85;11.68;;;13.20;99.90;;;;;;5072194;28;20083;-94
2022/10/30 07:07:34;;;;;;;30.45;12.32;;;13.70;99.90;;;;;;5053313;28;20089;-94
2022/10/30 07:10:00;;;;;;;30.48;12.30;;;13.30;99.90;;;;;;5069221;28;20067;-93
2022/10/30 07:12:26;;;;;;;24.83;10.32;;;13.30;99.90;;;;;;5068246;28;20044;-93
2022/10/30 07:14:51;;;;;;;29.10;12.70;;;13.30;99.90;;;;;;5072548;28;20136;-95
2022/10/30 07:17:17;;;;;;;28.30;11.30;;;13.30;99.90;;;;;;5056738;28;20044;-93
2022/10/30 07:19:43;;;;;;;20.48;10.60;;;13.40;99.90;;;;;;5075716;28;20078;-94
2022/10/30 07:22:08;;;;;;;20.55;10.30;;;14.20;99.90;;;;;;5088610;28;20055;-90
2022/10/30 07:24:34;;;;;;;21.80;10.93;;;13.40;99.90;;;;;;5057216;28;20459;-96
2022/10/30 07:27:06;;;;;;;17.45;11.23;;;13.40;99.90;;;;;;5028843;28;20040;-95
2022/10/30 07:29:31;;;;;;;23.77;10.75;;;13.50;99.90;;;;;;5091484;28;20036;-90
2022/10/30 07:31:57;;;;;;;24.77;11.27;;;14.10;99.90;;;;;;5073490;28;20105;-96
2022/10/30 07:34:23;;;;;;;24.50;10.77;;;13.50;99.90;;;;;;5071830;28;20101;-94
2022/10/30 07:36:48;;;;;;;25.52;12.13;;;13.50;99.90;;;;;;5083260;28;20109;-96
2022/10/30 07:39:14;;;;;;;30.10;11.63;;;13.60;99.90;;;;;;5092036;28;20040;-96
2022/10/30 07:41:40;;;;;;;20.42;11.20;;;13.60;99.90;;;;;;5088009;28;20044;-96
2022/10/30 07:44:07;;;;;;;27.58;10.70;;;13.80;99.90;;;;;;5055300;28;20044;-90
2022/10/30 07:46:32;;;;;;;27.73;11.95;;;13.70;99.90;;;;;;5089194;28;20044;-89
2022/10/30 07:48:58;;;;;;;31.73;13.52;;;13.70;99.90;;;;;;5069306;28;20518;-95
2022/10/30 07:51:24;;;;;;;20.00;10.45;;;13.70;99.90;;;;;;5072204;28;20120;-86
2022/10/30 07:53:50;;;;;;;21.25;11.20;;;13.70;99.90;;;;;;5070523;28;20059;-94
2022/10/30 07:56:21;;;;;;;17.65;10.88;;;13.90;99.90;;;;;;5055988;28;20067;-92
2022/10/30 07:58:47;;;;;;;24.25;11.05;;;13.80;99.90;;;;;;5071036;28;20491;-92
2022/10/30 08:01:12;;;;;;;25.70;11.77;;;13.90;99.90;;;;;;5051008;28;20037;-93
2022/10/30 08:03:39;;;;;;;22.30;10.40;;;14.00;99.90;;;;;;5052586;28;20052;-95
2022/10/30 08:06:05;;;;;;;20.40;11.60;;;14.00;99.90;;;;;;5049907;28;20059;-93
2022/10/30 08:08:31;;;;;;;22.90;11.60;;;14.00;99.90;;;;;;5052505;28;20041;-93
2022/10/30 08:10:57;;;;;;;23.05;12.10;;;14.10;99.90;;;;;;5050025;28;20051;-90
2022/10/30 08:13:22;;;;;;;29.42;11.43;;;14.20;99.90;;;;;;5052146;28;20052;-93
2022/10/30 08:15:49;;;;;;;27.80;10.95;;;14.30;99.90;;;;;;5036176;28;20052;-94
2022/10/30 08:18:14;;;;;;;25.85;11.00;;;14.40;99.90;;;;;;5039235;28;20051;-92
2022/10/30 08:20:40;;;;;;;24.80;12.13;;;14.50;99.90;;;;;;5055055;28;20480;-94
2022/10/30 08:23:11;;;;;;;18.13;10.35;;;14.60;99.90;;;;;;5036286;28;20148;-92
2022/10/30 08:25:37;;;;;;;23.33;10.15;;;14.70;99.90;;;;;;5069888;28;20110;-94
2022/10/30 08:28:05;;;;;;;24.08;9.85;;;14.70;99.90;;;;;;5050383;28;20036;-90
2022/10/30 08:30:33;;;;;;;18.92;9.65;;;14.80;99.90;;;;;;5052741;28;20040;-95
2022/10/30 08:33:01;;;;;;;21.77;10.45;;;14.90;99.90;;;;;;5033931;28;20530;-92
2022/10/30 08:35:27;;;;;;;22.67;9.75;;;15.00;99.90;;;;;;5034973;28;20047;-91
2022/10/30 08:37:57;;;;;;;20.73;10.32;;;15.10;99.90;;;;;;5068141;28;20049;-93
2022/10/30 08:40:26;;;;;;;25.88;10.13;;;15.20;99.90;;;;;;5033941;28;20049;-93
2022/10/30 08:42:53;;;;;;;29.38;10.60;;;15.30;99.90;;;;;;5069060;28;20128;-91
2022/10/30 08:45:20;;;;;;;20.73;10.15;;;15.40;99.90;;;;;;5049367;28;20083;-93
2022/10/30 08:47:45;;;;;;;25.80;10.77;;;15.40;99.90;;;;;;5018935;28;20041;-93
2022/10/30 08:50:11;;;;;;;23.55;9.48;;;15.50;99.90;;;;;;5050028;28;20071;-93
2022/10/30 08:52:37;;;;;;;19.48;10.13;;;15.60;99.90;;;;;;5052253;28;20040;-91
2022/10/30 08:55:03;;;;;;;25.38;9.77;;;15.80;99.90;;;;;;5034835;28;20049;-91
2022/10/30 08:57:35;;;;;;;20.58;9.70;;;15.90;99.90;;;;;;5049691;28;20044;-91
2022/10/30 09:00:00;;;;;;;24.38;10.52;;;16.00;99.90;;;;;;5060632;28;20499;-89
2022/10/30 09:02:26;;;;;;;24.95;11.38;;;16.10;99.90;;;;;;5052560;28;20048;-88
2022/10/30 09:04:52;;;;;;;18.77;9.18;;;16.20;99.90;;;;;;5064366;28;20048;-90
2022/10/30 09:07:17;;;;;;;19.00;10.40;;;16.30;99.90;;;;;;5070142;28;20742;-90
2022/10/30 09:09:43;;;;;;;17.92;8.68;;;16.40;99.90;;;;;;5069979;28;20460;-89
2022/10/30 09:12:09;;;;;;;22.02;9.90;;;16.40;99.90;;;;;;5053574;28;20479;-91
2022/10/30 09:14:35;;;;;;;18.80;8.88;;;16.50;99.90;;;;;;5067992;28;20044;-88
2022/10/30 09:17:01;;;;;;;22.05;9.60;;;16.60;99.90;;;;;;5069886;28;20118;-90
2022/10/30 09:19:27;;;;;;;28.30;9.90;;;16.60;99.90;;;;;;5068340;28;20060;-89
2022/10/30 09:21:54;;;;;;;21.17;9.82;;;16.70;99.90;;;;;;5062006;28;20044;-87
2022/10/30 09:24:19;;;;;;;26.02;10.05;;;16.80;99.90;;;;;;5068817;28;20135;-89
2022/10/30 09:26:45;;;;;;;17.55;9.30;;;17.00;99.90;;;;;;5070400;28;20086;-94
2022/10/30 09:29:11;;;;;;;18.73;9.02;;;17.10;99.90;;;;;;5071308;28;20108;-94
2022/10/30 09:31:38;;;;;;;21.63;10.13;;;17.20;99.90;;;;;;5054151;28;20047;-95
2022/10/30 09:34:03;;;;;;;20.27;8.60;;;17.30;99.90;;;;;;5057166;28;20062;-93
2022/10/30 09:36:31;;;;;;;20.92;8.48;;;17.50;99.90;;;;;;5055542;28;20048;-92
2022/10/30 09:38:57;;;;;;;21.08;7.82;;;17.60;99.90;;;;;;5088932;28;20048;-93
2022/10/30 09:42:00;;;;;;;16.02;8.07;;;17.70;99.90;;;;;;5070130;28;20229;-93
2022/10/30 09:44:34;;;;;;;17.92;7.70;;;17.80;99.90;;;;;;5070170;28;20120;-93
2022/10/30 09:47:35;;;;;;;19.45;8.27;;;17.80;99.90;;;;;;5071701;28;20480;-91
2022/10/30 09:50:32;;;;;;;24.83;8.57;;;18.00;99.90;;;;;;5061566;28;20051;-86
2022/10/30 09:53:22;;;;;;;22.38;8.98;;;18.10;99.90;;;;;;5072002;28;20055;-88
2022/10/30 09:56:07;;;;;;;21.13;8.63;;;18.20;99.90;;;;;;5072225;28;20430;-88
2022/10/30 09:58:53;;;;;;;16.80;8.25;;;18.30;99.90;;;;;;5089810;28;20082;-95
2022/10/30 10:01:27;;;;;;;17.67;8.15;;;18.40;99.90;;;;;;5053850;28;20055;-93
2022/10/30 10:04:23;;;;;;;17.92;7.10;;;18.50;99.90;;;;;;5051682;28;20089;-94
2022/10/30 10:06:59;;;;;;;16.63;7.18;;;18.50;99.90;;;;;;5067762;28;20048;-87
2022/10/30 10:09:28;;;;;;;20.83;9.10;;;18.50;99.90;;;;;;5069687;28;20036;-90
2022/10/30 10:11:57;;;;;;;22.02;8.32;;;18.60;99.90;;;;;;5050697;28;20051;-89
2022/10/30 10:14:35;;;;;;;16.27;8.00;;;18.60;99.90;;;;;;5085869;28;20140;-92
2022/10/30 10:17:04;;;;;;;17.60;7.43;;;18.60;99.90;;;;;;5068094;28;20054;-91
2022/10/30 10:19:52;;;;;;;15.75;7.85;;;18.60;99.90;;;;;;5067270;28;20058;-91
2022/10/30 10:22:23;;;;;;;20.42;7.95;;;18.80;99.90;;;;;;5068917;28;20483;-91
2022/10/30 10:24:50;;;;;;;18.80;7.68;;;18.90;99.90;;;;;;5066986;28;20050;-89
2022/10/30 10:27:51;;;;;;;17.77;7.57;;;19.10;99.90;;;;;;5068360;28;20105;-88
2022/10/30 10:30:22;;;;;;;18.27;7.90;;;19.20;99.90;;;;;;5068290;28;20097;-89
2022/10/30 10:33:21;;;;;;;28.15;8.05;;;19.30;99.90;;;;;;5067576;28;20352;-93
2022/10/30 10:35:59;;;;;;;21.55;7.43;;;19.50;99.90;;;;;;5053168;28;20044;-93
2022/10/30 10:39:03;;;;;;;30.92;8.20;;;19.50;99.90;;;;;;5068953;28;20040;-92
2022/10/30 10:41:50;;;;;;;22.08;6.55;;;19.50;99.90;;;;;;4981196;28;20080;-93
2022/10/30 10:44:41;;;;;;;17.20;6.65;;;19.50;99.90;;;;;;5055768;28;20130;-93
2022/10/30 10:47:51;;;;;;;17.85;6.68;;;19.50;99.90;;;;;;5071796;28;20095;-95
2022/10/30 10:50:46;;;;;;;15.68;6.35;;;19.60;99.90;;;;;;5053981;28;20043;-96
2022/10/30 10:53:39;;;;;;;17.10;6.57;;;19.70;99.90;;;;;;5055425;28;20056;-92
2022/10/30 10:56:06;;;;;;;19.70;7.25;;;19.90;99.90;;;;;;5072695;28;20567;-89
2022/10/30 10:58:55;;;;;;;14.50;5.88;;;20.00;99.90;;;;;;5068994;28;20075;-88
2022/10/30 11:01:33;;;;;;;14.75;6.10;;;20.00;99.90;;;;;;5071028;28;20048;-89
2022/10/30 11:04:12;;;;;;;21.02;6.80;;;20.10;99.90;;;;;;5076584;28;20117;-90
2022/10/30 11:06:40;;;;;;;16.88;8.07;;;20.10;99.90;;;;;;5086345;28;20095;-89
2022/10/30 11:09:21;;;;;;;20.88;7.22;;;20.10;99.90;;;;;;5067707;28;20073;-89
2022/10/30 11:11:52;;;;;;;14.23;6.07;;;20.20;99.90;;;;;;5084406;28;20043;-88
2022/10/30 11:14:20;;;;;;;15.98;7.10;;;20.20;99.90;;;;;;5081723;28;20047;-89
2022/10/30 11:17:13;;;;;;;13.70;5.72;;;20.20;99.90;;;;;;5077652;28;20099;-90
2022/10/30 11:19:39;;;;;;;17.58;6.32;;;20.20;99.90;;;;;;5052236;28;20044;-90
2022/10/30 11:22:37;;;;;;;12.95;6.28;;;20.20;99.90;;;;;;5068966;28;20044;-89
2022/10/30 11:25:24;;;;;;;15.90;5.88;;;20.30;99.90;;;;;;5066854;28;20036;-91
2022/10/30 11:28:03;;;;;;;14.68;5.95;;;20.40;99.90;;;;;;5052796;28;20056;-91
2022/10/30 11:30:29;;;;;;;12.07;5.78;;;20.50;99.90;;;;;;5051402;28;20132;-90
2022/10/30 11:33:18;;;;;;;13.93;6.15;;;20.60;99.90;;;;;;5065999;28;20040;-90
2022/10/30 11:35:44;;;;;;;20.85;6.05;;;20.70;99.90;;;;;;5067528;28;20051;-88
2022/10/30 11:38:19;;;;;;;15.13;5.55;;;20.80;99.90;;;;;;5066573;28;20607;-88
2022/10/30 11:40:51;;;;;;;18.77;5.55;;;20.80;99.90;;;;;;5067335;28;20048;-88
2022/10/30 11:43:21;;;;;;;12.90;5.53;;;20.90;99.90;;;;;;5067247;28;20048;-90
2022/10/30 11:45:48;;;;;;;16.48;5.50;;;20.90;99.90;;;;;;5065993;28;20487;-90
2022/10/30 11:48:29;;;;;;;11.90;5.85;;;20.90;99.90;;;;;;5067607;28;20040;-90
2022/10/30 11:51:00;;;;;;;13.68;5.25;;;20.90;99.90;;;;;;5050251;28;20044;-90
2022/10/30 11:53:47;;;;;;;13.82;5.47;;;20.90;99.90;;;;;;5067557;28;20040;-90
2022/10/30 11:56:19;;;;;;;16.30;5.28;;;20.90;99.90;;;;;;5067822;28;20044;-90
2022/10/30 11:58:55;;;;;;;12.88;4.25;;;20.90;99.90;;;;;;5066212;28;20051;-90
2022/10/30 12:01:34;;;;;;;16.17;4.07;;;20.80;99.90;;;;;;5052534;28;20512;-90
2022/10/30 12:04:33;;;;;;;13.95;4.78;;;20.60;99.90;;;;;;5070227;28;20044;-90
2022/10/30 12:07:26;;;;;;;13.05;5.40;;;20.50;99.90;;;;;;5010863;28;20048;-90
2022/10/30 12:09:52;;;;;;;11.93;3.80;;;20.50;99.90;;;;;;5071720;28;20387;-90
2022/10/30 12:12:25;;;;;;;13.38;5.05;;;20.50;99.90;;;;;;5054263;28;20047;-90
2022/10/30 12:14:52;;;;;;;8.90;4.68;;;20.50;99.90;;;;;;5071179;28;20402;-90
2022/10/30 12:17:19;;;;;;;9.23;4.32;;;20.40;99.90;;;;;;5037148;28;20040;-90
2022/10/30 12:19:54;;;;;;;13.63;3.45;;;20.40;99.90;;;;;;5053286;28;20051;-90
2022/10/30 12:22:41;;;;;;;21.98;4.97;;;20.30;99.90;;;;;;5070751;28;20048;-90
2022/10/30 12:25:27;;;;;;;13.63;3.63;;;20.30;99.90;;;;;;5068721;28;20044;-89
2022/10/30 12:28:05;;;;;;;21.52;6.18;;;20.20;99.90;;;;;;5071002;28;20040;-90
2022/10/30 12:30:36;;;;;;;9.57;3.90;;;20.20;99.90;;;;;;5054508;28;20044;-91
2022/10/30 12:33:15;;;;;;;11.30;4.28;;;20.30;99.90;;;;;;5054323;28;20105;-90
2022/10/30 12:36:17;;;;;;;11.30;4.85;;;20.30;99.90;;;;;;5057710;28;20044;-90
2022/10/30 12:39:06;;;;;;;11.63;4.10;;;20.40;99.90;;;;;;5047248;28;20056;-90
2022/10/30 12:41:39;;;;;;;12.80;4.10;;;20.30;99.90;;;;;;5022691;28;20071;-89
2022/10/30 12:44:43;;;;;;;14.30;4.68;;;20.30;99.90;;;;;;5081129;28;20479;-91
2022/10/30 12:47:40;;;;;;;15.52;4.00;;;20.30;99.90;;;;;;5067905;28;20097;-90
2022/10/30 12:50:36;;;;;;;9.20;4.10;;;20.30;99.90;;;;;;5075103;28;20160;-88
2022/10/30 12:53:30;;;;;;;9.27;4.45;;;20.30;99.90;;;;;;5055014;28;20044;-89